createdAt,value
2022-12-01T00:01:15.900Z,19.15
2022-12-01T00:03:43.055Z,19.20
2022-12-01T00:06:18.031Z,19.13
2022-12-01T00:09:06.161Z,18.17
2022-12-01T00:11:34.555Z,17.80
2022-12-01T00:14:01.694Z,18.38
2022-12-01T00:16:28.748Z,18.98
2022-12-01T00:18:56.135Z,18.42
2022-12-01T00:21:24.567Z,17.90
2022-12-01T00:23:53.791Z,18.48
2022-12-01T00:26:21.781Z,18.00
2022-12-01T00:28:52.827Z,19.65
2022-12-01T00:31:20.235Z,18.63
2022-12-01T00:33:46.963Z,18.15
2022-12-01T00:36:14.096Z,18.55
2022-12-01T00:38:41.063Z,18.55
2022-12-01T00:41:07.822Z,17.73
2022-12-01T00:43:34.696Z,19.00
2022-12-01T00:46:01.521Z,17.77
2022-12-01T00:48:28.283Z,18.10
2022-12-01T00:50:55.844Z,18.63
2022-12-01T00:53:23.015Z,19.27
2022-12-01T00:55:49.746Z,19.35
2022-12-01T00:58:16.584Z,17.60
2022-12-01T01:00:43.263Z,18.00
2022-12-01T01:03:11.012Z,19.13
2022-12-01T01:05:39.282Z,18.20
2022-12-01T01:08:13.245Z,17.80
2022-12-01T01:10:41.757Z,19.77
2022-12-01T01:13:09.053Z,18.17
2022-12-01T01:15:36.273Z,18.67
2022-12-01T01:18:04.039Z,20.77
2022-12-01T01:20:31.522Z,19.98
2022-12-01T01:22:58.366Z,19.48
2022-12-01T01:25:25.275Z,19.33
2022-12-01T01:27:51.961Z,19.42
2022-12-01T01:30:18.799Z,18.88
2022-12-01T01:32:45.524Z,18.25
2022-12-01T01:35:12.183Z,20.00
2022-12-01T01:37:38.875Z,20.73
2022-12-01T01:40:06.484Z,18.67
2022-12-01T01:42:33.246Z,17.77
2022-12-01T01:44:59.975Z,18.58
2022-12-01T01:47:39.668Z,18.63
2022-12-01T01:50:12.781Z,18.48
2022-12-01T01:52:44.903Z,19.33
2022-12-01T01:55:13.350Z,19.45
2022-12-01T01:57:40.620Z,17.75
2022-12-01T02:00:07.977Z,18.85
2022-12-01T02:02:40.760Z,19.20
2022-12-01T02:05:11.081Z,18.75
2022-12-01T02:07:41.977Z,19.40
2022-12-01T02:10:12.860Z,18.65
2022-12-01T02:13:04.412Z,19.20
2022-12-01T02:15:52.843Z,17.73
2022-12-01T02:18:42.321Z,18.10
2022-12-01T02:21:23.994Z,19.55
2022-12-01T02:24:18.764Z,19.17
2022-12-01T02:26:52.523Z,17.60
2022-12-01T02:29:41.778Z,18.88
2022-12-01T02:32:42.358Z,18.05
2022-12-01T02:35:16.590Z,18.17
2022-12-01T02:38:00.244Z,18.10
2022-12-01T02:40:29.294Z,19.02
2022-12-01T02:43:05.827Z,18.60
2022-12-01T02:45:40.792Z,18.08
2022-12-01T02:48:25.123Z,18.13
2022-12-01T02:50:53.745Z,18.58
2022-12-01T02:53:21.774Z,17.77
2022-12-01T02:55:57.647Z,19.52
2022-12-01T02:58:24.854Z,19.02
2022-12-01T03:01:00.568Z,18.50
2022-12-01T03:03:39.737Z,18.48
2022-12-01T03:06:41.268Z,19.90
2022-12-01T03:09:33.824Z,19.00
2022-12-01T03:12:21.449Z,19.65
2022-12-01T03:15:23.347Z,18.83
2022-12-01T03:17:59.341Z,18.95
2022-12-01T03:20:39.553Z,20.20
2022-12-01T03:23:10.380Z,19.95
2022-12-01T03:25:40.077Z,19.10
2022-12-01T03:28:24.589Z,19.70
2022-12-01T03:30:55.729Z,20.08
2022-12-01T03:33:35.240Z,19.05
2022-12-01T03:36:08.841Z,19.13
2022-12-01T03:38:37.520Z,20.65
2022-12-01T03:41:14.781Z,20.08
2022-12-01T03:43:47.997Z,20.55
2022-12-01T03:46:35.200Z,20.98
2022-12-01T03:49:03.731Z,21.42
2022-12-01T03:51:50.733Z,19.98
2022-12-01T03:54:33.679Z,18.45
2022-12-01T03:57:05.763Z,20.10
2022-12-01T03:59:36.020Z,20.17
2022-12-01T04:02:03.037Z,20.35
2022-12-01T04:04:29.799Z,18.75
2022-12-01T04:06:56.437Z,20.05
2022-12-01T04:09:23.096Z,20.33
2022-12-01T04:12:25.306Z,19.27
2022-12-01T04:14:52.035Z,20.13
2022-12-01T04:17:19.083Z,18.98
2022-12-01T04:19:45.813Z,19.98
2022-12-01T04:22:12.673Z,17.80
2022-12-01T04:24:39.565Z,19.73
2022-12-01T04:27:06.284Z,18.35
2022-12-01T04:29:33.023Z,18.48
2022-12-01T04:31:59.738Z,18.10
2022-12-01T04:34:26.519Z,19.05
2022-12-01T04:36:53.231Z,18.77
2022-12-01T04:39:19.908Z,19.42
2022-12-01T04:41:46.655Z,18.58
2022-12-01T04:44:14.809Z,19.90
2022-12-01T04:46:41.653Z,20.00
2022-12-01T04:49:09.061Z,18.38
2022-12-01T04:51:36.475Z,18.92
2022-12-01T04:54:03.659Z,18.98
2022-12-01T04:56:30.320Z,19.75
2022-12-01T04:58:58.972Z,18.83
2022-12-01T05:01:25.858Z,17.63
2022-12-01T05:03:52.917Z,19.52
2022-12-01T05:06:22.878Z,18.50
2022-12-01T05:08:50.376Z,18.35
2022-12-01T05:11:18.110Z,18.35
2022-12-01T05:13:47.122Z,18.35
2022-12-01T05:16:18.581Z,18.30
2022-12-01T05:19:16.326Z,18.25
2022-12-01T05:21:44.529Z,17.55
2022-12-01T05:24:13.026Z,17.88
2022-12-01T05:26:40.856Z,19.40
2022-12-01T05:29:08.208Z,18.02
2022-12-01T05:31:35.314Z,18.08
2022-12-01T05:34:02.660Z,16.52
2022-12-01T05:36:29.461Z,17.55
2022-12-01T05:38:56.198Z,18.35
2022-12-01T05:41:22.880Z,18.85
2022-12-01T05:43:49.559Z,19.25
2022-12-01T05:46:16.461Z,18.63
2022-12-01T05:48:43.382Z,19.73
2022-12-01T05:51:12.569Z,19.02
2022-12-01T05:53:39.614Z,19.23
2022-12-01T05:56:07.197Z,18.35
2022-12-01T05:58:34.413Z,19.42
2022-12-01T06:01:01.678Z,18.60
2022-12-01T06:03:28.374Z,18.75
2022-12-01T06:05:55.161Z,18.85
2022-12-01T06:08:21.894Z,18.40
2022-12-01T06:10:48.697Z,18.98
2022-12-01T06:13:15.720Z,19.60
2022-12-01T06:15:42.491Z,19.75
2022-12-01T06:18:09.713Z,18.75
2022-12-01T06:20:36.470Z,18.55
2022-12-01T06:23:03.527Z,17.52
2022-12-01T06:25:30.225Z,18.75
2022-12-01T06:27:58.466Z,18.73
2022-12-01T06:30:26.499Z,19.73
2022-12-01T06:32:53.351Z,19.67
2022-12-01T06:35:20.452Z,17.55
2022-12-01T06:37:47.315Z,18.30
2022-12-01T06:40:14.217Z,17.20
2022-12-01T06:42:41.188Z,18.20
2022-12-01T06:45:08.420Z,17.65
2022-12-01T06:47:35.092Z,19.80
2022-12-01T06:50:02.213Z,18.73
2022-12-01T06:52:28.982Z,18.70
2022-12-01T06:54:55.706Z,18.75
2022-12-01T06:57:22.735Z,18.88
2022-12-01T06:59:49.746Z,18.08
2022-12-01T07:02:17.364Z,18.75
2022-12-01T07:04:44.075Z,18.80
2022-12-01T07:07:12.151Z,18.30
2022-12-01T07:09:39.376Z,16.88
2022-12-01T07:12:06.797Z,17.38
2022-12-01T07:14:33.627Z,17.77
2022-12-01T07:17:00.423Z,18.35
2022-12-01T07:19:27.406Z,17.88
2022-12-01T07:21:54.164Z,17.05
2022-12-01T07:24:20.890Z,17.48
2022-12-01T07:26:48.258Z,20.23
2022-12-01T07:29:14.984Z,20.33
2022-12-01T07:31:41.749Z,19.23
2022-12-01T07:34:12.197Z,20.35
2022-12-01T07:39:07.585Z,19.73
2022-12-01T07:41:34.904Z,19.92
2022-12-01T07:44:02.312Z,19.20
2022-12-01T07:46:29.458Z,20.25
2022-12-01T07:48:57.021Z,19.95
2022-12-01T07:51:25.366Z,18.45
2022-12-01T07:53:53.356Z,20.00
2022-12-01T07:56:21.120Z,18.92
2022-12-01T07:58:48.229Z,19.42
2022-12-01T08:01:18.073Z,19.23
2022-12-01T08:03:45.324Z,18.75
2022-12-01T08:06:12.356Z,18.92
2022-12-01T08:08:40.902Z,20.60
2022-12-01T08:11:16.823Z,19.40
2022-12-01T08:13:44.721Z,20.50
2022-12-01T08:16:14.703Z,20.67
2022-12-01T08:18:43.018Z,20.73
2022-12-01T08:21:12.334Z,20.20
2022-12-01T08:23:39.730Z,20.40
2022-12-01T08:26:09.395Z,19.48
2022-12-01T08:28:36.925Z,20.75
2022-12-01T08:31:15.487Z,20.77
2022-12-01T08:33:42.296Z,20.70
2022-12-01T08:36:09.599Z,20.55
2022-12-01T08:38:36.282Z,19.98
2022-12-01T08:41:08.579Z,20.27
2022-12-01T08:46:28.852Z,20.92
2022-12-01T08:48:57.429Z,21.35
2022-12-01T08:51:24.670Z,23.65
2022-12-01T08:53:51.758Z,23.73
2022-12-01T08:56:42.829Z,22.90
2022-12-01T08:59:09.673Z,21.83
2022-12-01T09:01:52.013Z,21.77
2022-12-01T09:04:28.254Z,22.52
2022-12-01T09:06:56.311Z,25.15
2022-12-01T09:09:26.494Z,23.52
2022-12-01T09:11:53.919Z,22.77
2022-12-01T09:14:22.195Z,23.45
2022-12-01T09:16:50.430Z,24.13
2022-12-01T09:19:24.287Z,23.67
2022-12-01T09:21:52.378Z,23.48
2022-12-01T09:24:19.162Z,23.17
2022-12-01T09:26:46.004Z,23.95
2022-12-01T09:29:14.748Z,24.70
2022-12-01T09:31:42.598Z,24.48
2022-12-01T09:34:15.410Z,22.77
2022-12-01T09:36:42.643Z,24.88
2022-12-01T09:39:12.827Z,24.45
2022-12-01T09:41:45.352Z,23.23
2022-12-01T09:44:15.763Z,24.88
2022-12-01T09:49:44.324Z,23.33
2022-12-01T09:52:16.577Z,25.00
2022-12-01T09:54:43.383Z,25.10
2022-12-01T09:57:40.454Z,26.23
2022-12-01T10:00:15.484Z,27.02
2022-12-01T10:03:01.427Z,24.45
2022-12-01T10:05:36.573Z,25.02
2022-12-01T10:08:07.571Z,25.67
2022-12-01T10:10:42.661Z,26.15
2022-12-01T10:13:27.112Z,26.58
2022-12-01T10:16:12.097Z,26.35
2022-12-01T10:19:24.908Z,27.23
2022-12-01T10:22:08.098Z,24.73
2022-12-01T10:24:54.925Z,28.50
2022-12-01T10:27:33.753Z,27.83
2022-12-01T10:30:12.657Z,26.25
2022-12-01T10:32:52.331Z,26.58
2022-12-01T10:35:22.606Z,28.20
2022-12-01T10:37:56.761Z,26.52
2022-12-01T10:40:24.441Z,26.25
2022-12-01T10:42:51.755Z,27.25
2022-12-01T10:45:27.532Z,27.95
2022-12-01T10:48:16.445Z,26.17
2022-12-01T10:50:45.326Z,25.83
2022-12-01T10:53:24.400Z,27.55
2022-12-01T10:56:10.993Z,26.55
2022-12-01T10:58:43.757Z,28.63
2022-12-01T11:01:19.652Z,27.15
2022-12-01T11:03:56.973Z,27.92
2022-12-01T11:06:29.432Z,26.77
2022-12-01T11:09:03.546Z,27.05
2022-12-01T11:11:39.945Z,29.05
2022-12-01T11:14:21.322Z,26.25
2022-12-01T11:16:50.334Z,27.42
2022-12-01T11:19:43.771Z,27.75
2022-12-01T11:22:25.883Z,27.60
2022-12-01T11:24:55.366Z,27.17
2022-12-01T11:27:28.767Z,28.30
2022-12-01T11:29:58.298Z,26.63
2022-12-01T11:32:34.310Z,26.13
2022-12-01T11:35:18.079Z,27.15
2022-12-01T11:38:13.205Z,27.15
2022-12-01T11:41:05.590Z,25.98
2022-12-01T11:43:34.852Z,27.02
2022-12-01T11:46:09.201Z,26.13
2022-12-01T11:48:36.703Z,26.65
2022-12-01T11:51:29.917Z,25.83
2022-12-01T11:54:26.381Z,24.55
2022-12-01T11:57:25.318Z,25.13
2022-12-01T11:59:40.906Z,24.88
2022-12-01T12:02:19.580Z,24.73
2022-12-01T12:04:58.420Z,23.08
2022-12-01T12:07:55.989Z,24.17
2022-12-01T12:11:09.410Z,23.30
2022-12-01T12:13:53.128Z,23.33
2022-12-01T12:16:45.627Z,23.92
2022-12-01T12:20:07.234Z,23.73
2022-12-01T12:23:11.493Z,23.15
2022-12-01T12:26:18.940Z,24.27
2022-12-01T12:29:33.053Z,24.95
2022-12-01T12:32:14.839Z,24.80
2022-12-01T12:34:56.426Z,24.52
2022-12-01T12:38:00.494Z,23.88
2022-12-01T12:40:36.227Z,24.40
2022-12-01T12:43:21.507Z,23.50
2022-12-01T12:46:00.616Z,21.45
2022-12-01T12:48:50.844Z,22.15
2022-12-01T12:51:37.905Z,23.50
2022-12-01T12:54:07.811Z,23.05
2022-12-01T12:56:36.455Z,25.02
2022-12-01T12:59:11.511Z,24.80
2022-12-01T13:02:28.647Z,24.05
2022-12-01T13:05:12.579Z,23.08
2022-12-01T13:07:48.663Z,23.17
2022-12-01T13:10:55.178Z,22.48
2022-12-01T13:13:32.632Z,23.73
2022-12-01T13:16:02.516Z,24.60
2022-12-01T13:18:42.042Z,23.25
2022-12-01T13:21:17.073Z,22.17
2022-12-01T13:23:46.275Z,22.42
2022-12-01T13:26:14.068Z,22.35
2022-12-01T13:28:52.990Z,22.40
2022-12-01T13:31:21.755Z,22.60
2022-12-01T13:33:58.889Z,22.08
2022-12-01T13:39:36.837Z,21.77
2022-12-01T13:42:09.280Z,21.55
2022-12-01T13:44:43.237Z,21.25
2022-12-01T13:47:09.890Z,21.92
2022-12-01T13:49:42.414Z,21.17
2022-12-01T13:52:26.043Z,22.50
2022-12-01T13:55:07.854Z,23.27
2022-12-01T13:57:37.445Z,23.10
2022-12-01T14:00:07.536Z,22.80
2022-12-01T14:02:36.416Z,21.60
2022-12-01T14:05:25.211Z,21.27
2022-12-01T14:07:53.546Z,21.70
2022-12-01T14:10:27.034Z,22.02
2022-12-01T14:12:57.700Z,21.60
2022-12-01T14:15:32.300Z,21.83
2022-12-01T14:18:18.830Z,21.33
2022-12-01T14:20:48.018Z,21.17
2022-12-01T14:23:29.173Z,20.75
2022-12-01T14:26:07.137Z,22.27
2022-12-01T14:28:59.789Z,20.85
2022-12-01T14:31:32.655Z,20.83
2022-12-01T14:34:18.948Z,21.65
2022-12-01T14:37:11.159Z,20.55
2022-12-01T14:39:43.378Z,22.35
2022-12-01T14:42:57.309Z,21.77
2022-12-01T14:45:40.600Z,21.83
2022-12-01T14:48:15.356Z,23.58
2022-12-01T14:50:49.345Z,22.85
2022-12-01T14:53:30.601Z,23.35
2022-12-01T14:56:08.357Z,26.90
2022-12-01T14:58:35.032Z,23.40
2022-12-01T15:01:08.908Z,21.77
2022-12-01T15:03:43.397Z,22.83
2022-12-01T15:06:15.950Z,21.95
2022-12-01T15:08:53.400Z,21.45
2022-12-01T15:11:32.264Z,22.20
2022-12-01T15:14:02.198Z,20.92
2022-12-01T15:16:40.324Z,21.27
2022-12-01T15:19:31.905Z,22.02
2022-12-01T15:22:02.366Z,20.30
2022-12-01T15:27:03.474Z,19.85
2022-12-01T15:29:34.769Z,19.40
2022-12-01T15:32:05.862Z,21.33
2022-12-01T15:34:37.027Z,20.90
2022-12-01T15:37:06.970Z,20.00
2022-12-01T15:39:44.013Z,19.63
2022-12-01T15:42:33.459Z,19.50
2022-12-01T15:45:03.177Z,19.80
2022-12-01T15:47:45.718Z,20.40
2022-12-01T15:50:38.674Z,19.50
2022-12-01T15:53:23.640Z,18.40
2022-12-01T15:55:57.130Z,19.73
2022-12-01T15:58:29.702Z,23.95
2022-12-01T16:01:00.360Z,23.15
2022-12-01T16:03:27.681Z,19.88
2022-12-01T16:05:55.548Z,19.38
2022-12-01T16:08:26.062Z,20.40
2022-12-01T16:11:22.045Z,21.38
2022-12-01T16:14:21.874Z,20.85
2022-12-01T16:16:51.076Z,21.25
2022-12-01T16:19:17.754Z,21.33
2022-12-01T16:21:48.702Z,22.20
2022-12-01T16:24:27.466Z,20.55
2022-12-01T16:27:01.174Z,21.65
2022-12-01T16:29:29.906Z,21.15
2022-12-01T16:32:23.418Z,22.00
2022-12-01T16:34:52.466Z,22.55
2022-12-01T16:37:19.912Z,21.00
2022-12-01T16:39:46.658Z,22.95
2022-12-01T16:42:16.804Z,21.38
2022-12-01T16:44:48.156Z,21.38
2022-12-01T16:47:24.082Z,23.67
2022-12-01T16:49:52.102Z,22.05
2022-12-01T16:52:43.572Z,22.52
2022-12-01T16:55:37.957Z,23.65
2022-12-01T16:58:05.108Z,27.20
2022-12-01T17:00:32.206Z,25.25
2022-12-01T17:02:59.548Z,28.05
2022-12-01T17:05:26.435Z,28.20
2022-12-01T17:07:53.326Z,26.20
2022-12-01T17:10:21.352Z,27.25
2022-12-01T17:12:48.158Z,26.50
2022-12-01T17:15:15.249Z,26.50
2022-12-01T17:17:42.096Z,29.45
2022-12-01T17:20:10.106Z,26.35
2022-12-01T17:22:37.148Z,25.70
2022-12-01T17:25:04.694Z,25.85
2022-12-01T17:27:32.337Z,24.83
2022-12-01T17:29:59.334Z,25.08
2022-12-01T17:32:27.423Z,24.45
2022-12-01T17:34:54.442Z,31.05
2022-12-01T17:37:21.577Z,32.33
2022-12-01T17:39:49.266Z,31.08
2022-12-01T17:42:16.427Z,29.02
2022-12-01T17:44:43.152Z,28.38
2022-12-01T17:47:09.915Z,26.35
2022-12-01T17:49:36.740Z,27.10
2022-12-01T17:52:08.200Z,27.92
2022-12-01T17:54:38.284Z,28.58
2022-12-01T17:57:06.642Z,25.73
2022-12-01T17:59:34.416Z,25.40
2022-12-01T18:02:01.181Z,26.02
2022-12-01T18:04:27.932Z,24.20
2022-12-01T18:06:54.841Z,37.03
2022-12-01T18:09:21.936Z,37.03
2022-12-01T18:11:48.925Z,31.23
2022-12-01T18:14:18.691Z,44.28
2022-12-01T18:16:45.857Z,33.92
2022-12-01T18:19:13.009Z,34.88
2022-12-01T18:21:40.226Z,37.13
2022-12-01T18:24:10.925Z,28.45
2022-12-01T18:26:40.236Z,26.85
2022-12-01T18:29:12.476Z,29.67
2022-12-01T18:31:39.410Z,33.22
2022-12-01T18:34:07.542Z,28.33
2022-12-01T18:36:37.353Z,26.20
2022-12-01T18:39:06.755Z,26.38
2022-12-01T18:41:34.582Z,23.63
2022-12-01T18:44:01.627Z,24.08
2022-12-01T18:46:29.034Z,22.33
2022-12-01T18:49:03.191Z,21.02
2022-12-01T18:51:31.555Z,23.40
2022-12-01T18:54:00.622Z,27.13
2022-12-01T18:56:28.006Z,25.38
2022-12-01T18:58:56.591Z,25.63
2022-12-01T19:01:28.719Z,24.52
2022-12-01T19:03:56.590Z,43.95
2022-12-01T19:06:24.404Z,41.28
2022-12-01T19:08:51.969Z,48.30
2022-12-01T19:11:18.841Z,27.33
2022-12-01T19:13:46.220Z,34.70
2022-12-01T19:16:18.307Z,34.92
2022-12-01T19:18:45.586Z,37.08
2022-12-01T19:21:14.658Z,32.92
2022-12-01T19:23:41.891Z,34.00
2022-12-01T19:26:12.118Z,30.80
2022-12-01T19:28:40.348Z,29.25
2022-12-01T19:31:13.135Z,28.85
2022-12-01T19:33:40.290Z,23.70
2022-12-01T19:36:09.977Z,24.42
2022-12-01T19:38:36.871Z,26.25
2022-12-01T19:41:04.238Z,53.60
2022-12-01T19:43:31.025Z,39.60
2022-12-01T19:45:57.803Z,31.45
2022-12-01T19:48:24.559Z,30.52
2022-12-01T19:50:51.197Z,32.10
2022-12-01T19:53:17.850Z,36.22
2022-12-01T19:55:44.577Z,38.67
2022-12-01T19:58:11.208Z,38.78
2022-12-01T20:00:37.951Z,44.65
2022-12-01T20:03:04.836Z,55.72
2022-12-01T20:05:32.524Z,42.88
2022-12-01T20:07:59.297Z,33.15
2022-12-01T20:10:26.076Z,27.08
2022-12-01T20:12:52.917Z,25.20
2022-12-01T20:15:19.715Z,25.70
2022-12-01T20:17:46.446Z,28.90
2022-12-01T20:20:13.446Z,28.77
2022-12-01T20:22:40.238Z,25.15
2022-12-01T20:25:07.395Z,26.77
2022-12-01T20:27:34.088Z,25.10
2022-12-01T20:30:00.769Z,24.30
2022-12-01T20:32:28.181Z,22.48
2022-12-01T20:34:54.892Z,25.92
2022-12-01T20:37:21.605Z,27.52
2022-12-01T20:39:48.333Z,27.38
2022-12-01T20:42:15.169Z,25.15
2022-12-01T20:44:41.890Z,24.13
2022-12-01T20:47:08.568Z,28.17
2022-12-01T20:49:35.230Z,23.08
2022-12-01T20:52:01.959Z,22.15
2022-12-01T20:54:30.048Z,21.48
2022-12-01T20:56:57.980Z,24.00
2022-12-01T20:59:24.780Z,23.08
2022-12-01T21:01:51.627Z,23.20
2022-12-01T21:04:18.302Z,23.35
2022-12-01T21:06:45.362Z,23.50
2022-12-01T21:09:13.204Z,23.33
2022-12-01T21:12:06.973Z,23.40
2022-12-01T21:14:42.453Z,24.13
2022-12-01T21:17:35.332Z,24.65
2022-12-01T21:20:08.904Z,24.95
2022-12-01T21:22:36.363Z,23.48
2022-12-01T21:25:12.394Z,22.85
2022-12-01T21:27:39.129Z,23.33
2022-12-01T21:30:22.008Z,23.73
2022-12-01T21:32:49.620Z,22.55
2022-12-01T21:35:27.528Z,23.80
2022-12-01T21:38:00.413Z,27.20
2022-12-01T21:40:27.553Z,26.95
2022-12-01T21:42:56.434Z,26.55
2022-12-01T21:45:28.455Z,23.90
2022-12-01T21:48:13.012Z,24.35
2022-12-01T21:50:39.701Z,25.00
2022-12-01T21:53:16.274Z,23.48
2022-12-01T21:55:46.126Z,24.17
2022-12-01T21:58:31.080Z,24.15
2022-12-01T22:00:59.383Z,23.35
2022-12-01T22:03:44.357Z,24.23
2022-12-01T22:06:35.002Z,23.98
2022-12-01T22:09:14.437Z,21.17
2022-12-01T22:11:44.779Z,22.55
2022-12-01T22:19:14.621Z,20.55
2022-12-01T22:22:03.504Z,22.95
2022-12-01T22:24:42.497Z,21.70
2022-12-01T22:27:28.455Z,20.85
2022-12-01T22:30:01.022Z,20.42
2022-12-01T22:32:32.473Z,20.75
2022-12-01T22:35:09.757Z,20.15
2022-12-01T22:38:14.336Z,20.67
2022-12-01T22:40:43.896Z,20.23
2022-12-01T22:43:16.663Z,21.67
2022-12-01T22:46:10.198Z,21.65
2022-12-01T22:48:43.199Z,21.35
2022-12-01T22:51:12.656Z,20.48
2022-12-01T22:53:40.418Z,19.80
2022-12-01T22:56:32.224Z,20.58
2022-12-01T22:58:59.096Z,21.65
2022-12-01T23:01:30.195Z,21.73
2022-12-01T23:04:29.645Z,21.95
2022-12-01T23:07:29.353Z,22.00
2022-12-01T23:10:02.935Z,20.77
2022-12-01T23:12:32.262Z,21.85
2022-12-01T23:15:39.089Z,23.17
2022-12-01T23:18:11.887Z,23.63
2022-12-01T23:20:38.928Z,24.30
2022-12-01T23:23:29.544Z,24.23
2022-12-01T23:25:56.721Z,24.38
2022-12-01T23:28:24.898Z,24.30
2022-12-01T23:30:54.372Z,26.40
2022-12-01T23:33:31.984Z,27.43
2022-12-01T23:36:02.083Z,27.92
2022-12-01T23:38:39.502Z,25.67
2022-12-01T23:41:12.493Z,26.33
2022-12-01T23:43:41.583Z,27.17
2022-12-01T23:46:12.899Z,27.05
2022-12-01T23:48:49.209Z,28.70
2022-12-01T23:51:20.321Z,26.25
2022-12-01T23:53:47.282Z,29.00
2022-12-01T23:56:19.816Z,29.08
2022-12-01T23:58:46.987Z,28.73
